Date,TemperatureHighF,TemperatureAvgF,TemperatureLowF,DewpointHighF,DewpointAvgF,DewpointLowF,HumidityHigh,HumidityAvg,HumidityLow,PressureMaxIn,PressureMinIn,WindSpeedMaxMPH,WindSpeedAvgMPH,GustSpeedMaxMPH,PrecipitationSumIn
2013-1-1,32.3,22.5,10.2,28.9,17.5,7.0,91,81,71,30.05,29.83,11,4,31,0.00
2013-1-2,26.3,19.8,13.2,20.1,14.5,9.4,94,80,68,30.23,30.01,10,3,31,0.00
2013-1-3,28.3,22.3,13.1,26.0,18.3,10.2,93,85,73,30.22,29.99,9,3,16,0.00
2013-1-4,35.2,31.0,28.3,25.2,22.1,17.9,83,70,52,30.02,29.88,14,7,25,0.02
2013-1-5,35.2,31.4,28.3,25.9,23.7,21.3,81,73,62,30.30,30.01,10,4,21,0.00
2013-1-6,38.6,34.1,30.2,33.8,28.6,22.9,100,80,70,30.08,29.89,7,3,15,0.03
2013-1-7,34.7,29.6,26.1,31.8,24.2,20.0,95,80,64,30.38,30.05,9,3,16,0.01
2013-1-8,42.2,32.8,23.7,23.5,20.6,16.0,75,61,43,30.33,30.19,5,2,10,0.00
2013-1-9,49.8,40.6,29.6,36.9,28.3,20.6,77,62,48,30.30,29.97,17,7,32,0.00
2013-1-10,42.8,36.5,30.0,28.5,27.1,25.5,84,69,54,30.57,30.30,13,3,21,0.00
2013-1-11,43.3,39.6,32.6,40.6,32.0,23.8,90,75,50,30.44,29.92,11,5,23,0.10
2013-1-12,55.8,49.2,43.0,49.2,45.2,40.3,95,86,76,30.03,29.97,8,3,13,0.00
2013-1-13,60.1,53.8,45.5,52.5,49.4,43.7,97,85,75,29.98,29.75,10,3,18,0.00
2013-1-14,55.8,46.8,38.2,51.3,42.1,31.0,91,84,75,30.12,29.71,12,6,26,0.00
2013-1-15,35.9,30.2,26.1,22.7,20.8,19.4,80,68,53,30.39,30.18,4,1,8,0.00
2013-1-16,37.4,31.9,28.1,30.4,26.0,22.1,93,79,62,30.18,29.78,5,2,12,0.01
2013-1-17,34.2,25.3,17.1,28.8,19.9,14.6,90,80,61,30.18,29.86,12,4,19,0.00
2013-1-18,25.8,18.9,12.2,14.7,10.6,6.6,92,72,52,30.44,30.14,9,3,16,0.00
2013-1-19,48.5,44.5,36.2,29.5,24.6,19.8,52,46,36,30.01,29.62,8,5,19,0.02
2013-1-20,47.0,30.8,18.9,34.4,19.1,7.7,88,63,39,30.05,29.44,19,9,34,0.05
2013-1-21,22.6,17.8,12.6,17.5,10.6,2.7,92,73,58,30.05,29.86,8,2,20,0.00
2013-1-22,13.4,8.6,5.0,3.1,-0.8,-5.1,80,65,47,30.20,29.90,10,6,20,0.00
2013-1-23,14.4,7.5,2.6,3.1,-1.1,-7.2,83,68,50,30.25,30.13,7,2,20,0.00
2013-1-24,14.7,8.4,3.7,8.0,2.8,-0.2,89,78,63,30.54,30.11,11,2,20,0.00
2013-1-25,16.7,10.9,6.4,10.3,5.5,0.9,89,79,62,30.52,30.09,4,1,20,0.00
2013-1-26,23.3,14.2,3.8,13.4,7.8,0.8,99,77,56,30.41,30.11,6,1,20,0.02
2013-1-27,30.5,21.9,17.1,18.2,15.8,11.3,89,78,54,30.57,30.39,6,2,20,0.01
2013-1-28,44.5,35.2,21.4,43.3,30.7,15.0,96,84,59,30.39,29.88,9,3,20,0.16
2013-1-29,55.7,45.0,35.4,53.2,43.4,34.5,98,94,86,30.04,29.78,6,2,20,0.27
2013-1-30,63.1,56.8,53.5,56.0,51.2,48.2,92,82,71,29.78,29.02,17,6,29,0.05
2013-1-31,55.3,30.6,19.3,52.0,25.0,15.3,94,80,58,29.69,28.97,17,10,35,0.27
2013-2-1,23.7,18.6,16.1,16.2,11.9,8.3,89,75,57,30.20,29.69,11,6,22,0.00
2013-2-2,21.5,16.5,11.5,15.5,9.9,4.5,88,75,59,30.21,29.98,6,2,20,0.00
2013-2-3,27.1,19.4,12.3,17.5,13.6,9.0,91,79,52,29.98,29.78,6,1,20,0.01
2013-2-4,21.0,18.2,16.7,14.7,11.6,8.0,89,75,60,29.96,29.86,9,4,20,0.00
2013-2-5,28.7,21.5,14.9,18.5,15.5,11.7,90,78,61,29.97,29.85,3,0,20,0.02
2013-2-6,27.0,23.1,13.1,23.6,15.0,7.5,92,72,44,30.38,29.88,10,4,20,0.00
2013-2-7,32.1,23.5,10.2,21.2,15.2,5.6,89,72,56,30.45,30.10,8,2,20,0.00
2013-2-8,36.5,31.0,18.0,33.0,27.0,15.8,96,86,60,30.10,29.75,11,4,20,0.03
2013-2-9,20.3,16.8,10.8,16.9,14.2,7.8,93,90,84,30.44,30.01,0,0,20,0.00
2013-2-10,39.1,25.1,5.6,26.4,15.8,2.4,97,71,41,30.43,30.01,9,2,20,0.23
2013-2-11,52.4,38.2,34.4,41.4,29.6,20.2,89,72,52,30.01,29.56,12,7,27,0.02
2013-2-12,34.8,32.4,29.9,27.0,24.5,21.5,79,73,67,29.96,29.69,14,7,24,0.00
2013-2-13,43.0,32.1,25.9,27.7,23.1,21.3,88,70,49,29.92,29.70,5,1,20,0.00
2013-2-14,26.4,26.0,25.7,23.5,23.0,22.7,90,88,86,29.83,29.78,2,1,20,0.00
2013-2-15,32.8,28.9,25.3,22.9,20.0,17.5,77,69,62,30.03,29.97,7,4,20,0.00
2013-2-16,29.9,23.5,20.0,19.3,15.9,11.9,91,73,49,30.04,29.91,5,2,20,0.00
2013-2-17,20.3,14.8,11.1,17.0,9.9,3.1,90,81,66,30.17,29.88,14,6,25,0.00
2013-2-18,33.6,21.4,10.1,17.5,10.3,5.2,92,64,42,30.31,29.97,8,3,16,0.02
2013-2-19,43.4,34.3,24.3,34.9,24.7,15.2,92,69,48,29.97,29.54,11,5,23,0.04
2013-2-20,24.4,20.3,17.6,17.2,13.8,10.4,92,76,62,30.06,29.74,14,8,26,0.00
2013-2-21,20.6,18.1,13.9,17.2,12.7,8.5,92,79,71,30.43,30.01,12,6,22,0.00
2013-2-22,33.2,26.6,19.4,26.1,21.4,16.6,91,81,67,30.41,30.03,10,4,21,0.00
2013-2-23,38.0,33.8,30.7,33.6,29.7,25.6,91,85,78,30.06,29.85,8,3,14,0.02
2013-2-24,31.9,30.1,28.2,28.5,24.5,22.6,91,80,71,30.05,29.83,8,4,18,0.00
2013-2-25,37.7,31.9,26.5,28.4,24.8,21.7,87,75,57,30.23,30.05,6,3,11,0.00
2013-2-26,41.9,32.6,22.3,31.9,26.4,20.1,96,79,56,30.23,29.84,13,4,22,0.04
2013-2-27,37.5,34.2,32.6,36.5,33.2,31.6,100,96,94,29.84,29.55,6,1,11,0.69
2013-2-28,38.6,34.4,32.2,35.2,32.2,30.3,97,92,80,29.69,29.53,6,2,11,0.42
2013-3-1,32.4,28.8,24.8,31.0,26.4,21.2,97,91,85,29.91,29.69,10,5,20,0.02
2013-3-2,25.7,23.5,21.5,23.5,19.9,17.5,92,86,74,29.92,29.85,8,5,16,0.00
2013-3-3,24.0,22.0,20.5,20.4,18.5,16.9,93,86,78,29.89,29.83,9,4,19,0.00
2013-3-4,29.3,24.7,20.7,22.8,19.1,16.3,92,79,67,30.03,29.88,10,7,21,0.00
2013-3-5,37.6,26.7,21.0,26.4,21.0,18.8,94,80,59,30.10,29.97,8,2,16,0.10
2013-3-6,38.6,23.2,20.0,31.3,-1.1,-99.9,100,68,72,30.13,29.95,6,-212,11,0.02
2013-3-7,37.2,12.7,32.9,31.6,-52.7,-99.9,93,29,68,30.25,30.11,9,-632,12,0.01
2013-3-8,38.6,14.1,30.8,26.5,-51.2,-99.9,82,25,54,30.38,30.22,17,-602,18,0.00
2013-3-9,50.4,17.8,28.1,31.8,-47.5,-99.9,94,23,42,30.40,30.22,3,-594,6,0.00
2013-3-10,59.5,33.7,47.4,28.9,-20.8,-99.9,39,22,29,30.22,29.97,10,-368,19,0.00
2013-3-11,53.1,50.9,48.1,45.9,30.8,24.2,77,47,36,29.98,29.68,19,7,31,0.00
2013-3-12,52.9,41.3,34.3,48.1,36.9,28.8,100,84,75,29.89,29.67,13,4,20,0.15
2013-3-13,38.8,32.0,24.0,30.6,23.0,15.6,89,70,53,29.93,29.81,12,5,22,0.01
2013-3-14,24.7,21.6,19.5,19.2,15.0,11.8,85,76,69,29.94,29.90,14,10,23,0.00
2013-3-15,33.5,31.8,29.9,27.1,23.1,21.5,77,70,64,29.86,29.81,11,7,19,0.00
2013-3-16,29.8,25.5,19.0,23.2,19.3,16.0,92,77,64,29.97,29.81,8,2,14,0.01
2013-3-17,29.6,23.3,17.9,24.2,17.8,10.4,90,79,63,30.35,29.96,9,2,12,0.01
2013-3-18,32.0,24.2,14.8,28.6,17.3,9.1,92,76,42,30.35,29.77,16,5,29,0.00
2013-3-19,39.1,32.3,24.8,34.1,27.2,17.8,95,82,63,29.82,29.68,11,4,22,0.13
2013-3-20,34.2,27.1,23.3,23.9,17.8,12.4,83,68,52,29.83,29.78,12,6,22,0.00
2013-3-21,30.2,23.8,17.5,23.3,17.0,12.0,92,76,49,29.83,29.72,7,3,14,0.00
2013-3-22,31.1,28.4,24.4,25.8,23.3,20.9,92,81,72,29.92,29.74,12,7,20,0.01
2013-3-23,36.3,31.7,27.9,25.2,23.6,21.5,88,72,58,29.99,29.89,11,6,18,0.01
2013-3-24,39.1,31.4,25.4,27.3,23.4,20.6,91,73,54,30.00,29.73,6,2,12,0.00
2013-3-25,39.1,32.6,27.2,29.6,26.1,23.0,92,77,63,29.72,29.58,8,1,14,0.00
2013-3-26,45.5,36.8,30.3,32.1,27.6,24.9,83,70,53,29.92,29.70,11,3,19,0.00
2013-3-27,46.2,36.2,31.1,35.2,29.2,24.4,94,77,52,30.04,29.89,13,5,19,0.01
2013-3-28,42.6,36.4,32.2,34.5,30.7,27.2,92,80,58,30.19,30.02,7,4,12,0.01
2013-3-29,47.5,40.3,35.7,35.1,31.2,28.3,84,71,49,30.19,30.11,7,3,15,0.00
2013-3-30,52.9,41.3,30.0,28.8,24.8,19.5,76,54,31,30.18,30.06,7,2,11,0.00
2013-3-31,53.7,43.1,32.9,41.4,30.8,20.3,92,65,39,30.06,29.62,10,3,19,0.12
2013-4-1,42.4,38.0,32.6,40.2,31.4,16.6,97,78,45,29.85,29.55,13,6,22,0.04
2013-4-2,33.5,29.0,21.8,22.1,17.3,13.4,77,62,50,30.11,29.99,12,8,25,0.01
2013-4-3,35.3,29.1,24.7,22.1,18.0,13.8,85,64,47,30.37,30.09,11,7,25,0.00
2013-4-4,58.2,39.0,23.5,21.6,17.0,10.7,78,46,17,30.36,29.92,7,3,13,0.01
2013-4-5,46.3,38.6,28.6,27.7,19.8,10.3,63,47,27,30.12,29.85,12,6,24,0.00
2013-4-6,51.4,36.4,23.8,23.4,18.1,13.7,79,50,24,30.33,30.07,7,3,13,0.00
2013-4-7,72.1,54.5,44.1,45.5,30.5,15.8,73,41,29,30.06,29.71,13,8,26,0.00
2013-4-8,64.8,50.7,38.5,50.5,38.4,33.1,85,64,42,30.09,29.77,7,2,14,0.01
2013-4-9,69.2,55.6,45.1,50.5,44.7,40.3,97,69,39,30.07,29.76,12,4,21,0.52
2013-4-10,47.4,43.9,38.2,47.0,43.4,37.8,99,98,96,30.00,29.83,10,2,18,0.54
2013-4-11,38.2,34.5,31.8,37.9,33.2,29.9,100,95,82,30.13,29.94,8,2,13,0.14
2013-4-12,53.5,42.0,34.7,49.7,40.0,34.2,99,93,83,29.96,29.56,12,5,24,0.39
2013-4-13,45.1,40.7,37.9,38.6,34.5,31.8,89,79,61,29.93,29.76,7,3,17,0.01
2013-4-14,48.8,39.4,33.8,32.9,29.8,27.2,85,69,46,30.19,29.93,8,4,14,0.01
2013-4-15,72.2,54.6,33.4,47.4,39.7,27.3,81,60,38,30.18,30.03,9,5,21,0.00
2013-4-16,68.6,57.8,46.2,58.9,50.5,35.9,93,77,65,30.19,29.93,11,6,23,0.10
2013-4-17,57.3,46.6,37.4,41.0,33.9,30.3,77,62,42,30.32,30.18,8,2,13,0.00
2013-4-18,71.7,59.8,40.9,57.4,47.5,30.9,82,65,48,30.24,29.76,13,7,26,0.00
2013-4-19,73.1,59.3,41.0,60.6,51.3,33.3,89,75,51,29.76,29.34,16,7,25,0.11
2013-4-20,42.1,38.0,30.6,33.6,27.2,20.9,81,65,48,30.39,29.71,14,7,25,0.00
2013-4-21,48.1,35.6,27.4,30.0,23.8,19.9,78,63,41,30.67,30.39,5,2,11,0.00
2013-4-22,58.3,44.7,28.3,30.7,25.0,19.5,82,49,27,30.62,30.36,13,4,22,0.00
2013-4-23,46.5,44.1,41.4,30.9,29.6,26.7,65,57,46,30.37,30.34,6,3,13,0.00
2013-4-25,60.5,48.6,37.6,39.0,31.0,22.3,92,54,26,30.29,30.11,9,3,21,0.08
2013-4-26,56.2,44.3,35.6,38.8,32.8,27.5,95,67,34,30.45,30.29,8,2,20,0.01
2013-4-27,71.3,54.0,37.1,40.5,33.0,29.2,78,49,25,30.43,30.22,6,1,9,0.00
2013-4-28,70.4,58.0,43.7,47.5,37.8,31.9,85,50,26,30.22,30.02,13,4,20,0.06
2013-4-29,61.0,55.5,50.7,52.0,47.7,42.0,86,75,64,30.05,29.96,9,4,16,0.02
2013-4-30,68.2,60.4,54.7,54.1,51.5,49.8,88,73,56,31.98,30.04,9,4,21,0.01
2013-5-1,78.0,65.4,55.4,51.0,38.8,27.7,75,43,17,30.33,29.20,8,4,16,0.00
2013-5-2,78.5,66.4,52.9,44.0,36.0,28.9,50,34,21,30.38,28.36,7,3,16,0.00
2013-5-3,79.0,66.8,54.4,48.1,41.2,35.9,62,40,28,30.28,30.17,7,3,15,0.00
2013-5-4,76.8,63.4,51.5,45.2,39.7,32.4,59,43,27,30.25,30.11,8,3,16,0.00
2013-5-5,79.6,65.5,51.6,47.2,39.6,28.9,68,41,19,30.17,23.74,7,2,14,0.00
2013-5-6,79.8,65.2,50.4,48.1,37.7,27.7,59,38,20,30.12,25.15,7,3,14,0.00
2013-5-7,81.6,67.3,52.8,55.1,49.9,43.6,88,57,29,30.07,23.69,5,1,10,0.00
2013-5-8,70.0,61.9,56.5,60.1,55.2,49.6,96,79,65,29.06,28.89,4,1,8,0.10
2013-5-9,68.4,59.8,51.6,62.1,56.2,50.4,98,88,66,29.87,23.49,5,1,9,0.22
2013-5-10,72.9,61.6,52.5,60.5,55.0,49.1,95,80,54,29.92,17.48,9,2,16,0.76
2013-5-11,61.9,57.2,50.0,57.6,51.8,44.7,97,83,61,29.73,19.61,6,2,16,0.11
2013-5-12,52.2,45.6,35.7,44.9,34.0,26.4,91,66,37,31.48,27.73,14,6,24,0.02
2013-5-13,47.9,40.8,34.6,32.8,29.5,27.3,77,65,48,30.12,29.91,9,5,17,0.01
2013-5-14,59.6,46.1,32.6,36.4,30.7,24.2,90,59,26,30.15,29.96,6,1,10,0.00
2013-5-15,83.0,63.9,45.5,59.5,46.3,33.0,77,54,36,31.52,28.59,13,4,25,0.01
2013-5-16,76.5,65.4,52.5,47.1,42.2,35.3,64,45,26,31.75,17.01,11,4,22,0.00
2013-5-17,66.7,54.4,40.7,46.1,39.9,35.5,94,61,34,32.34,17.38,4,1,12,0.00
2013-5-18,74.2,58.4,44.0,53.5,45.5,35.9,82,63,44,32.06,24.63,4,1,11,0.00
2013-5-19,74.7,64.7,57.7,61.7,56.9,51.3,88,76,61,32.31,17.79,7,3,15,0.00
2013-5-20,86.8,73.9,62.1,68.1,62.1,57.9,87,69,45,28.97,28.90,6,2,12,0.00
2013-5-21,90.6,75.4,64.5,72.0,65.0,60.4,97,72,42,28.96,28.96,10,2,18,0.71
2013-5-22,89.6,74.4,63.1,70.3,63.2,54.4,98,72,38,28.96,28.96,9,2,18,0.11
2013-5-23,76.8,66.5,48.3,64.4,60.2,47.2,97,81,60,28.96,28.96,8,3,12,0.37
2013-5-24,48.1,41.9,37.8,47.0,38.9,36.5,100,89,71,32.10,28.70,12,7,20,0.05
2013-5-25,55.1,47.5,39.5,39.0,36.0,32.9,84,66,45,30.18,30.11,13,6,22,0.00
2013-5-26,61.2,51.8,43.6,39.1,35.2,31.1,73,55,34,30.19,30.08,10,4,21,0.00
2013-5-27,72.7,57.4,42.9,42.9,37.0,31.9,72,49,26,30.25,27.41,6,1,11,0.00
2013-5-28,62.5,56.2,49.8,61.0,50.0,35.2,98,81,53,32.23,23.62,6,1,11,0.60
2013-5-29,83.8,71.8,61.6,70.6,64.8,60.4,96,80,56,32.14,23.45,10,3,16,0.20
2013-5-30,89.9,77.5,66.0,69.2,64.0,60.7,90,66,39,28.76,28.76,5,1,12,0.00
2013-5-31,92.6,80.2,69.5,66.7,61.6,56.0,77,56,31,28.76,28.76,5,2,10,0.00
2013-6-1,88.8,76.6,64.5,70.0,64.7,60.4,90,69,46,28.76,28.76,7,2,14,0.00
2013-6-2,80.3,71.3,63.4,66.8,62.2,54.4,93,74,51,28.76,28.76,9,4,19,0.04
2013-6-3,66.3,57.0,48.7,57.3,47.0,42.2,92,71,44,28.76,28.76,6,3,13,0.00
2013-6-4,68.8,56.5,46.9,45.8,40.5,34.0,81,58,29,28.76,28.76,8,2,14,0.00
2013-6-5,72.5,58.7,45.5,50.8,43.2,33.9,85,58,36,28.76,25.67,5,1,11,0.00
2013-6-6,59.1,55.2,52.0,56.9,52.0,42.9,98,89,68,28.52,20.82,5,1,13,1.34
2013-6-7,66.7,60.4,57.5,64.2,59.2,56.9,99,96,88,31.62,17.35,4,1,9,0.06
2013-6-8,65.3,59.6,55.5,59.3,56.8,54.3,99,91,76,32.09,22.13,4,1,9,0.00
2013-6-9,76.9,64.9,54.9,61.6,55.2,51.9,92,72,49,31.08,22.24,4,1,8,0.00
2013-6-10,65.7,63.5,58.2,63.8,59.9,53.8,97,89,74,17.64,17.64,5,2,11,0.42
2013-6-11,66.9,63.9,60.4,63.8,61.3,55.7,98,91,82,17.64,17.64,8,3,19,0.24
2013-6-12,60.4,58.0,57.1,55.8,54.5,54.0,90,88,85,17.64,17.64,4,2,8,0.00
2013-6-15,75.0,69.4,61.7,53.2,49.2,41.5,71,50,31,24.11,24.11,6,3,16,0.00
2013-6-16,75.4,66.4,61.0,66.2,58.7,52.0,92,76,68,24.11,24.11,8,3,19,0.01
2013-6-17,80.1,68.5,58.6,63.7,59.6,52.6,94,76,39,24.11,24.11,9,2,19,0.03
2013-6-18,67.4,59.8,51.9,58.7,53.5,45.1,98,81,46,24.11,24.11,7,2,13,0.00
2013-6-19,67.6,57.5,46.9,50.0,46.0,42.1,96,68,44,24.11,24.11,5,2,10,0.00
2013-6-20,78.2,62.3,47.1,57.8,48.6,41.9,89,63,37,24.11,24.11,6,1,11,0.00
2013-6-21,85.5,69.2,53.5,63.6,53.9,43.8,85,60,33,24.11,24.11,3,0,7,0.00
2013-6-22,88.5,76.7,62.9,68.2,63.8,58.0,84,66,46,24.11,24.11,4,1,9,0.00
2013-6-23,89.6,76.8,69.9,74.9,68.9,65.0,98,77,55,24.11,24.11,7,2,12,0.77
2013-6-24,88.9,79.0,70.5,72.7,66.7,61.7,85,68,45,24.11,24.11,6,2,14,0.00
2013-6-25,85.1,76.1,70.5,71.0,65.9,61.8,82,71,57,24.11,24.11,6,2,13,0.01
2013-6-26,85.4,75.2,68.8,70.6,66.5,63.1,88,75,52,24.11,24.11,5,2,11,0.00
2013-6-27,81.3,71.6,64.7,72.6,67.2,63.1,98,87,67,24.11,24.11,5,0,9,0.35
2013-6-28,69.7,65.2,61.6,68.0,64.3,61.0,99,97,88,24.11,24.11,4,1,8,0.55
2013-6-29,73.1,66.4,61.5,68.9,64.3,61.0,99,93,78,24.11,24.11,4,1,7,0.50
2013-6-30,79.7,68.1,60.1,69.7,64.5,59.7,100,89,67,24.11,24.11,4,1,8,0.01
2013-7-1,64.0,12.3,62.3,62.6,-68.3,-99.9,98,19,95,24.11,24.11,0,-804,0,0.00
2013-7-2,86.3,30.3,64.7,76.5,-33.3,-99.9,100,32,59,24.11,24.11,6,-613,10,0.00
2013-7-3,88.0,42.9,70.4,77.1,-9.2,-99.9,99,39,61,24.11,24.11,6,-472,10,0.01
2013-7-4,88.4,37.5,75.0,74.9,-22.7,-99.9,90,31,56,24.11,24.11,5,-550,10,0.01
2013-7-5,88.6,40.4,75.4,75.0,-17.2,-99.9,88,33,57,24.11,24.11,4,-519,9,0.05
2013-7-6,89.2,38.5,71.0,75.0,-19.3,-99.9,95,33,54,24.11,24.11,3,-524,6,0.00
2013-7-7,86.4,38.9,72.9,73.7,-18.2,-99.9,95,34,58,24.11,24.11,4,-521,10,0.00
2013-7-8,85.8,38.0,71.2,72.7,-18.9,-99.9,87,35,54,24.11,24.11,5,-521,12,0.00
2013-7-9,84.0,37.7,72.3,76.0,-18.3,-99.9,90,37,67,24.11,24.11,4,-522,8,0.00
2013-7-10,-200.0,0.0,200.0,-99.9,-99.9,-99.9,0,0,100,24.11,24.11,0,-999,0,0.00
2013-7-20,77.9,71.4,67.0,70.2,64.4,-99.9,94,82,69,0.00,-32.77,9,-12,16,0.05
2013-7-21,78.5,69.3,62.0,66.5,63.1,59.5,98,82,59,0.00,-32.77,5,1,9,0.00
2013-7-22,83.4,69.6,59.4,71.8,65.3,58.5,99,87,63,0.00,-32.77,3,0,8,0.15
2013-7-23,84.8,71.9,64.8,71.6,66.3,57.8,99,84,53,0.00,-32.77,6,1,14,0.20
2013-7-24,67.5,60.9,50.6,58.8,53.0,48.9,94,76,62,0.00,-32.77,9,4,15,0.00
2013-7-25,73.6,59.9,47.1,57.9,52.1,46.3,99,78,49,0.00,-32.77,5,1,10,0.00
2013-7-26,78.7,64.6,50.9,61.0,55.6,49.9,98,75,46,0.00,-32.77,4,1,9,0.01
2013-7-27,79.6,67.6,57.1,67.8,62.7,55.6,96,85,63,0.00,-32.77,5,1,11,0.08
2013-7-28,77.6,67.2,58.6,67.2,63.9,57.8,98,90,60,0.00,-32.77,6,1,10,0.20
2013-7-29,69.3,61.9,55.1,60.8,56.8,53.7,98,84,64,0.00,-32.77,5,1,8,0.01
2013-7-30,75.8,65.1,56.6,62.6,57.7,54.5,94,78,58,0.00,-32.77,5,1,13,0.00
2013-7-31,82.5,68.5,56.7,64.4,59.2,55.3,98,74,44,0.00,-32.77,4,0,7,0.00
2013-8-1,78.7,69.9,64.2,68.4,62.9,58.9,92,79,64,0.00,-32.77,8,2,15,0.00
2013-8-2,77.8,67.4,60.5,66.9,60.2,56.9,96,79,54,0.00,-32.77,5,1,11,0.29
2013-8-3,75.8,68.6,61.9,61.0,57.1,51.4,90,68,43,0.00,-32.77,7,2,13,0.00
2013-8-4,70.2,63.6,57.7,58.9,54.6,49.5,89,73,53,0.00,-32.77,10,3,22,0.00
2013-8-5,77.5,63.5,51.2,57.4,52.3,47.7,97,70,38,0.00,-32.77,4,1,9,0.00
2013-8-6,79.7,66.5,53.2,61.7,56.0,50.3,91,71,43,0.00,-32.77,4,1,7,0.00
2013-8-7,78.7,70.3,64.3,68.2,63.8,58.5,87,80,68,0.00,-32.77,7,3,16,0.00
2013-8-8,87.8,72.3,65.8,74.1,67.7,63.3,98,86,59,0.00,-32.77,4,1,9,0.81
2013-8-9,77.6,69.9,64.2,71.1,67.5,59.0,99,92,70,0.00,-32.77,6,1,9,0.16
2013-8-10,74.0,66.0,56.5,60.4,55.5,50.3,89,70,45,0.00,-32.77,9,3,15,0.00
2013-8-11,75.7,64.7,55.0,59.9,55.5,51.7,94,74,50,0.00,-32.77,4,1,9,0.00
2013-8-12,79.7,67.6,57.5,66.5,59.7,53.8,92,77,52,0.00,-32.77,4,0,8,0.00
2013-8-13,67.3,13.3,62.6,62.2,-66.5,-99.9,97,19,81,0.00,-32.77,3,-792,5,0.31
2013-8-14,-200.0,0.0,200.0,-99.9,-99.9,-99.9,0,0,100,0.00,-32.77,0,-999,0,0.00
2013-8-15,-200.0,0.0,200.0,-99.9,-99.9,-99.9,0,0,100,0.00,-32.77,0,-999,0,0.00
2013-8-18,80.8,73.1,65.4,65.3,62.0,59.4,81,69,51,0.00,-32.77,3,0,7,0.00
2013-8-19,82.3,70.9,59.5,65.1,60.5,56.2,94,72,45,0.00,-32.77,5,1,11,0.00
2013-8-20,84.5,71.2,58.7,66.4,60.6,56.1,94,72,45,0.00,-32.77,4,1,8,0.00
2013-8-21,87.7,74.1,62.2,69.4,62.2,58.5,90,69,43,0.00,-32.77,2,0,6,0.00
2013-8-22,86.4,73.2,66.9,71.2,65.8,61.0,97,79,52,0.00,-32.77,8,2,13,0.28
2013-8-23,73.2,64.8,54.7,62.0,57.5,53.1,98,79,55,0.00,-32.77,7,2,14,0.01
2013-8-24,78.7,62.6,51.4,58.6,54.5,50.6,99,78,44,0.00,-32.77,4,0,8,0.01
2013-8-25,82.6,67.7,51.0,63.2,56.9,49.8,98,71,43,0.00,-32.77,4,1,12,0.00
2013-8-26,80.3,70.1,65.3,71.1,64.8,58.3,96,84,66,0.00,-32.77,7,2,12,0.62
2013-8-27,86.1,74.5,67.4,74.2,69.8,66.5,98,86,60,0.00,-32.77,4,0,7,0.00
2013-8-28,81.6,72.4,66.5,75.5,70.1,65.8,99,93,74,0.00,-32.77,3,0,8,0.52
2013-8-29,82.7,71.2,62.8,72.2,67.3,62.2,100,89,62,0.00,-32.77,5,1,9,0.01
2013-8-30,86.8,73.0,60.7,73.6,65.9,58.2,99,81,51,0.00,-32.77,2,0,6,0.01
2013-8-31,84.0,74.9,67.7,72.9,69.4,66.5,97,83,65,0.00,-32.77,6,2,13,0.00
2013-9-1,84.3,72.9,66.3,73.4,68.4,64.8,98,87,66,0.00,-32.77,7,1,11,0.08
2013-9-2,84.4,71.3,63.1,73.4,67.4,57.5,99,88,64,0.00,-32.77,7,2,13,0.28
2013-9-3,66.1,62.1,57.2,60.2,57.0,54.9,92,84,72,0.00,-32.77,6,2,16,0.00
2013-9-4,78.4,67.4,57.3,61.2,56.1,52.2,90,69,43,0.00,-32.77,8,3,16,0.00
2013-9-5,65.0,58.4,48.3,60.4,50.1,41.7,95,75,52,0.00,-32.77,9,3,15,0.01
2013-9-6,73.6,56.6,42.7,52.1,45.6,40.5,94,70,35,0.00,-32.77,4,0,7,0.00
2013-9-7,66.3,60.9,52.6,59.0,51.3,44.6,85,71,58,0.00,-32.77,5,2,12,0.00
2013-9-8,65.2,60.1,46.9,63.8,53.0,44.1,98,79,52,0.00,-32.77,8,3,18,0.03
2013-9-9,80.1,60.9,44.9,61.6,51.1,42.6,94,72,47,0.00,-32.77,5,1,11,0.00
2013-9-10,92.1,77.8,65.2,76.2,69.4,-99.9,93,77,56,0.00,-32.77,6,3,15,0.02
2013-9-11,93.8,80.2,68.6,75.3,71.8,64.0,91,77,48,0.00,-32.77,8,3,20,0.17
2013-9-12,74.1,72.4,71.2,68.8,67.2,66.4,86,84,81,0.00,-32.77,7,2,16,0.00
2013-9-17,66.5,56.3,41.0,47.0,44.1,40.5,100,66,41,0.00,-32.77,4,1,11,0.02
2013-9-18,76.2,58.4,45.4,53.1,45.0,40.5,91,63,37,0.00,-32.77,3,1,11,0.00
2013-9-19,82.4,65.4,54.3,58.5,51.9,45.0,87,64,38,0.00,-32.77,3,1,11,0.00
2013-9-20,81.9,68.9,58.5,64.2,59.2,55.2,91,73,50,0.00,-32.77,6,2,15,0.00
2013-9-21,69.7,63.1,53.2,63.2,59.2,51.5,98,88,72,0.00,-32.77,7,3,14,0.58
2013-9-22,54.2,51.1,48.3,51.5,45.4,40.7,94,81,68,0.00,-32.77,8,3,16,0.00
2013-9-23,58.4,49.6,41.2,45.3,43.0,39.6,95,79,54,0.00,-32.77,7,3,13,0.00
2013-9-24,65.1,51.2,40.4,50.2,44.2,39.0,98,80,46,0.00,-32.77,6,1,12,0.01
2013-9-25,69.7,53.3,42.8,53.2,45.9,40.2,97,78,47,0.00,-32.77,4,1,11,0.00
2013-9-26,69.4,55.1,44.2,56.7,49.1,42.7,100,82,57,0.00,-32.77,6,1,11,0.00
2013-9-27,71.5,56.5,45.6,57.6,51.3,44.8,99,85,52,0.00,-32.77,5,1,11,0.01
2013-9-28,72.8,58.3,45.6,60.8,52.0,45.1,100,82,53,0.00,-32.77,6,1,12,0.01
2013-9-29,74.8,61.0,48.3,56.3,50.5,45.9,95,70,46,0.00,-32.77,5,1,11,0.00
2013-9-30,78.6,64.8,56.1,60.6,55.1,49.3,91,72,49,0.00,-32.77,3,1,11,0.00
2013-10-1,76.6,65.0,56.8,61.2,56.8,52.9,97,76,47,0.00,-32.77,4,1,11,0.00
2013-10-2,76.9,67.7,60.9,64.5,58.6,53.1,84,73,47,0.00,-32.77,7,2,15,0.00
2013-10-3,76.7,61.9,50.6,55.4,49.1,38.8,88,66,31,0.00,-32.77,3,0,11,0.00
2013-10-4,76.8,66.8,60.2,69.3,64.1,-99.9,98,92,71,0.00,-32.77,4,-1,11,0.01
2013-10-5,60.5,60.0,59.7,60.0,59.5,59.1,100,99,97,0.00,-32.77,2,0,11,0.04
2013-10-6,81.2,72.2,60.1,72.3,64.9,-99.9,100,81,66,0.00,-32.77,9,-7,19,0.28
2013-10-7,72.4,64.7,54.5,65.8,58.7,43.7,96,82,58,0.00,-32.77,11,6,23,0.59
2013-10-8,64.3,54.8,44.5,48.8,44.3,40.9,95,70,45,0.00,-32.77,6,1,11,0.00
2013-10-9,45.7,44.9,44.1,43.8,43.2,42.4,96,94,92,0.00,-32.77,1,0,11,0.00
2013-10-12,76.4,65.0,45.6,52.1,42.9,34.1,93,48,22,0.00,-32.77,6,2,11,0.00
2013-10-13,68.9,61.5,56.0,62.6,54.3,42.8,90,78,50,0.00,-32.77,5,2,12,0.02
2013-10-14,59.8,55.7,53.1,56.6,54.2,51.1,98,95,85,0.00,-32.77,4,1,11,0.45
2013-10-15,65.8,57.7,48.8,57.9,53.6,48.0,99,87,68,0.00,-32.77,5,1,11,0.00
2013-10-16,63.5,60.3,56.2,58.1,52.7,46.9,95,77,61,0.00,-32.77,8,3,16,0.08
2013-10-17,67.6,56.4,48.4,52.2,50.1,46.6,97,81,50,0.00,-32.77,5,1,11,0.51
2013-10-18,58.9,51.7,48.5,51.4,44.0,39.9,98,76,55,0.00,-32.77,11,4,21,0.03
2013-10-19,60.9,53.2,45.4,48.1,43.5,39.6,93,71,53,0.00,-32.77,10,3,18,0.07
2013-10-20,50.3,45.4,40.8,43.3,40.3,37.9,90,82,73,0.00,-32.77,6,2,12,0.02
2013-10-21,67.2,55.8,43.5,41.8,39.0,37.1,90,56,34,0.00,-32.77,8,4,15,0.00
2013-10-22,55.5,46.5,40.0,48.4,38.6,31.1,95,76,47,0.00,-32.77,9,3,18,0.08
2013-10-23,49.1,40.8,35.7,39.0,35.2,32.7,92,81,60,0.00,-32.77,10,1,17,0.00
2013-10-24,47.1,39.2,33.4,35.7,32.4,28.8,96,77,53,0.00,-32.77,9,5,18,0.00
2013-10-25,49.3,40.6,36.0,38.2,35.4,33.6,92,82,60,0.00,-32.77,6,2,17,0.09
2013-10-26,46.9,42.9,39.9,35.0,29.7,26.9,82,60,47,0.00,-32.77,9,4,20,0.00
2013-11-1,52.9,52.1,50.4,43.2,41.4,39.6,75,67,61,0.00,-32.77,4,1,13,0.00
2013-11-2,51.9,45.9,36.1,45.8,42.4,35.3,97,88,70,0.00,-32.77,11,2,18,0.20
2013-11-3,37.0,32.3,25.5,35.3,26.3,21.5,97,79,57,0.00,-32.77,8,4,17,0.02
2013-11-4,43.8,32.8,22.2,27.8,21.3,18.6,93,65,39,0.00,-32.77,8,2,15,0.00
2013-11-5,38.4,37.1,35.5,23.6,21.1,18.3,61,52,45,0.00,-32.77,8,4,19,0.00
2013-11-7,42.3,40.0,35.7,39.5,34.2,30.5,93,80,70,0.00,-32.77,7,4,14,0.30
2013-11-8,40.0,36.7,33.3,32.3,28.9,26.3,83,73,61,0.00,-32.77,11,6,20,0.02
2013-11-9,49.8,41.2,35.4,38.5,29.8,26.9,79,64,52,32.04,-32.77,9,3,20,0.00
2013-11-10,50.1,43.8,38.0,41.8,34.4,-99.9,83,70,58,31.66,26.59,14,6,26,0.02
2013-11-11,45.0,38.5,29.0,35.7,30.4,26.1,94,73,53,31.83,21.01,11,4,21,0.01
2013-11-12,33.0,27.1,23.6,26.3,21.1,18.2,91,78,61,30.37,27.20,13,6,19,0.00
2013-11-13,37.2,29.0,20.1,24.1,19.7,15.0,95,69,46,31.37,21.25,8,4,21,0.00
2013-11-14,52.6,43.6,33.8,20.5,15.7,11.7,48,33,22,31.89,28.30,9,6,27,0.00
2013-11-15,55.0,47.4,41.1,24.3,19.4,15.5,44,33,23,31.91,21.07,7,2,27,0.00
2013-11-16,62.5,50.5,38.7,42.0,34.3,24.2,72,54,38,30.10,24.09,8,3,27,0.00
2013-11-17,56.8,51.3,49.9,51.7,46.1,42.0,92,82,72,31.88,20.93,13,6,27,0.03
2013-11-18,53.7,44.5,35.2,39.9,32.8,25.2,85,64,47,0.00,-32.77,13,9,27,0.00
2013-11-19,36.4,33.4,29.2,29.4,24.8,21.5,86,71,55,0.00,-32.77,12,6,21,0.00
2013-11-20,43.2,29.9,20.7,26.2,20.9,14.5,91,71,41,0.00,-32.77,5,1,16,0.00
2013-11-21,44.5,38.1,32.4,36.5,24.8,11.8,90,60,38,0.00,-32.77,10,3,21,0.02
2013-11-22,48.5,42.7,32.9,46.3,40.6,27.9,96,92,80,0.00,-32.77,12,3,19,0.02
2013-11-23,35.6,27.7,16.2,27.7,21.4,9.1,91,77,58,0.00,-32.77,14,8,26,0.02
2013-11-24,21.8,17.2,13.9,15.0,11.7,8.7,88,79,60,0.00,-32.77,11,6,21,0.00
2013-11-25,35.2,26.8,15.7,21.3,12.6,7.2,85,58,33,0.00,-32.77,5,2,16,0.00
2013-11-26,35.0,32.8,30.8,32.4,27.9,20.8,100,83,66,0.00,-32.77,5,1,16,0.44
2013-11-27,32.9,29.3,21.6,32.1,27.6,18.9,97,93,85,0.00,-32.77,11,4,21,0.67
2013-11-28,27.4,22.0,17.5,20.5,16.9,12.6,92,81,66,0.00,-32.77,10,4,20,0.01
2013-11-29,28.7,21.7,13.6,22.3,16.6,10.5,95,82,60,0.00,-32.77,5,1,16,0.01
2013-11-30,30.4,22.8,10.4,22.6,16.3,7.8,92,77,60,0.00,-32.77,9,3,17,0.00
2013-12-1,39.8,34.2,29.6,33.8,28.4,22.6,100,80,67,0.00,-32.77,6,2,16,0.07
2013-12-2,40.5,36.5,34.0,36.3,33.1,31.3,93,87,79,0.00,-32.77,2,0,16,0.05
2013-12-3,41.8,32.6,28.6,33.8,28.9,25.5,100,86,69,0.00,-32.77,3,0,16,0.01
2013-12-4,56.5,40.9,29.6,44.2,36.2,26.8,100,84,60,0.00,-32.77,8,1,16,0.01
2013-12-5,59.4,51.8,41.9,54.0,46.6,36.1,89,82,68,0.00,-32.77,11,5,26,0.01
2013-12-6,41.9,33.0,28.7,37.4,29.7,25.7,95,88,79,0.00,-32.77,6,2,16,0.04
2013-12-7,30.4,26.6,21.8,26.7,18.7,12.5,92,72,58,0.00,-32.77,9,4,16,0.04
2013-12-8,27.1,22.7,17.7,22.4,15.1,11.2,91,73,59,0.00,-32.77,6,2,16,0.00
2013-12-9,41.1,34.1,24.7,36.2,28.5,22.2,92,80,68,0.00,-32.77,10,6,22,0.03
2013-12-10,32.0,25.2,19.4,23.0,18.1,10.6,94,74,57,0.00,-32.77,9,4,20,0.03
2013-12-11,26.0,20.8,13.7,21.9,17.2,8.1,94,86,75,0.00,-32.77,6,2,16,0.00
2013-12-12,20.1,16.1,8.5,12.2,8.7,4.1,84,73,60,0.00,-32.77,7,4,16,0.00
2013-12-13,25.3,18.5,13.4,20.7,14.9,9.7,91,86,74,0.00,-32.77,8,2,16,0.00
2013-12-14,25.4,15.6,7.7,22.6,12.9,4.4,94,89,84,0.00,-32.77,9,2,17,0.00
2013-12-15,27.6,24.7,19.6,26.0,21.9,13.9,95,89,75,0.00,-32.77,11,4,21,0.00
2013-12-16,22.7,16.3,6.4,15.8,11.4,3.4,92,81,64,0.00,-32.77,9,3,19,0.00
2013-12-17,30.0,19.8,3.2,24.8,15.8,0.3,94,85,71,0.00,-32.77,7,2,16,0.00
2013-12-18,30.5,27.1,23.5,26.7,23.2,20.0,93,85,75,0.00,-32.77,7,2,16,0.00
2013-12-19,43.2,36.0,26.7,32.4,26.3,17.4,86,68,59,0.00,-32.77,7,2,16,0.20
2013-12-20,50.0,44.5,36.0,47.5,39.4,32.2,96,82,62,0.00,-32.77,5,2,16,0.09
2013-12-21,57.8,48.1,32.0,54.2,46.0,31.2,98,93,85,0.00,-32.77,7,3,16,0.92
2013-12-22,62.5,41.3,31.6,55.4,39.6,30.8,99,94,68,0.00,-32.77,12,2,19,0.04
2013-12-23,41.6,36.0,26.3,39.7,32.1,19.9,97,86,69,0.00,-32.77,12,4,22,0.01
2013-12-24,26.3,23.5,18.5,22.8,19.7,15.8,93,85,76,0.00,-32.77,6,2,16,0.01
2013-12-25,23.3,17.5,5.5,14.3,9.8,2.3,89,72,62,0.00,-32.77,8,2,16,0.00
2013-12-26,33.3,27.4,23.1,28.4,20.9,13.8,87,76,67,0.00,-32.77,9,4,17,0.01
2013-12-27,33.3,29.2,23.8,27.9,23.5,17.3,84,79,73,0.00,-32.77,7,2,16,0.01
2013-12-28,47.5,41.1,32.5,34.2,30.7,26.5,79,67,57,0.00,-32.77,9,4,16,0.00
2013-12-29,46.6,41.3,36.8,38.8,33.2,26.4,96,75,46,0.00,-32.77,10,2,17,0.21
2013-12-30,37.2,19.2,11.7,33.4,15.6,8.6,94,86,77,0.00,-32.77,10,4,17,0.21
2013-12-31,25.0,17.9,13.6,19.8,12.1,6.9,87,78,66,0.00,-32.77,11,4,25,0.00
2014-1-1,21.1,17.2,14.0,13.6,9.7,6.4,89,72,63,0.00,-32.77,6,2,16,0.00
2014-1-2,10.7,9.9,9.3,8.1,7.2,6.5,89,88,88,0.00,-32.77,4,2,16,0.00